Wilmington, North Carolina
Current Conditions -  °F | °C
As of 7:35 AM on Tuesday 27 Jan 2015 (Local Time) from KILM Reporting Station
Light Rain Light Rain  
Wind Chill: 31°   Ceiling: 900
Heat Index: 38°   Visibility: 5mi
Dew Point: 36°   Wind: 10mph
Humidity: 93%   Direction: 310°NW
Pressure: 29.78"   Gusts: NA
Location:  34.24°N, 77.94°W
Report Text: KILM 271235Z 31009KT 5SM -RA BR OVC009 03/02 A2978 RMK AO2 P0000 T00330022
Loading
Personal Weather Stations






























Interactive Weather Map New forecast layout! Learn more

10-Day Weather Forecast

Advertisements
Track Severe Weather on mobile